Time;durP1;ratioP1;P1;durP2;ratioP2;P2;SDS_P1;SDS_P2;PMS_P1;PMS_P2;Temp;Humidity;BMP_temperature;BMP_pressure;BME280_temperature;BME280_humidity;BME280_pressure;Samples;Min_cycle;Max_cycle;Signal;HPM_P1;HPM_P2
2021/09/13 00:00:19;;;;;;;11.22;9.15;;;;;;;24.19;46.97;101210.72;1783273;80;21530;-49
2021/09/13 00:02:45;;;;;;;11.80;9.25;;;;;;;24.18;47.41;101206.37;1772683;80;21029;-51
2021/09/13 00:05:14;;;;;;;13.10;9.93;;;;;;;24.16;47.25;101210.95;1774063;80;21029;-49
2021/09/13 00:07:42;;;;;;;12.15;9.48;;;;;;;24.12;47.15;101208.61;1771403;80;22123;-47
2021/09/13 00:10:10;;;;;;;10.88;9.13;;;;;;;24.07;47.40;101207.59;1783234;80;21061;-47
2021/09/13 00:12:38;;;;;;;12.30;9.80;;;;;;;24.05;47.95;101213.50;1773388;80;21494;-50
2021/09/13 00:15:07;;;;;;;10.82;8.83;;;;;;;24.01;47.84;101206.67;1771344;80;21021;-47
2021/09/13 00:17:35;;;;;;;13.22;10.20;;;;;;;23.99;47.41;101200.61;1771333;80;20993;-49
2021/09/13 00:20:05;;;;;;;11.65;9.98;;;;;;;23.96;47.38;101204.83;1772953;80;21518;-49
2021/09/13 00:22:33;;;;;;;13.48;9.53;;;;;;;23.96;47.83;101196.86;1773812;80;21014;-49
2021/09/13 00:25:04;;;;;;;11.25;10.05;;;;;;;23.94;47.67;101202.76;1786463;80;21057;-50
2021/09/13 00:27:32;;;;;;;13.45;9.93;;;;;;;23.92;47.58;101196.70;1775606;80;21065;-47
2021/09/13 00:30:01;;;;;;;14.80;10.08;;;;;;;23.92;47.28;101198.03;1771038;80;21005;-47
2021/09/13 00:32:28;;;;;;;11.53;10.20;;;;;;;23.90;47.15;101197.29;1771351;80;21024;-50
2021/09/13 00:34:57;;;;;;;15.15;10.45;;;;;;;23.88;47.30;101195.69;1773730;80;21544;-52
2021/09/13 00:37:25;;;;;;;11.30;10.00;;;;;;;23.87;47.35;101194.83;1773877;80;21068;-49
2021/09/13 00:39:53;;;;;;;12.90;10.50;;;;;;;23.85;47.96;101199.41;1774400;80;21020;-50
2021/09/13 00:42:19;;;;;;;10.88;9.18;;;;;;;23.82;47.86;101196.12;1774899;80;21486;-50
2021/09/13 00:44:48;;;;;;;12.28;10.35;;;;;;;23.80;47.67;101195.38;1779703;80;21026;-49
2021/09/13 00:47:15;;;;;;;13.32;10.40;;;;;;;23.77;47.83;101192.45;1771920;80;21032;-49
2021/09/13 00:49:42;;;;;;;14.50;9.68;;;;;;;23.77;47.88;101195.10;1774581;80;21001;-50
2021/09/13 00:52:11;;;;;;;14.13;10.18;;;;;;;23.77;48.02;101192.45;1775024;80;21541;-48
2021/09/13 00:54:38;;;;;;;15.93;10.72;;;;;;;23.77;47.61;101191.12;1774062;80;20997;-48
2021/09/13 00:57:05;;;;;;;13.62;10.23;;;;;;;23.75;47.33;101191.70;1771995;80;21430;-50
2021/09/13 00:59:32;;;;;;;14.63;11.65;;;;;;;23.74;47.97;101197.95;1774106;80;21061;-47
2021/09/13 01:02:01;;;;;;;14.38;10.43;;;;;;;23.70;48.32;101196.47;1776328;80;21002;-48
2021/09/13 01:04:27;;;;;;;17.90;11.83;;;;;;;23.70;48.15;101193.81;1776981;80;20963;-47
2021/09/13 01:06:55;;;;;;;13.58;10.55;;;;;;;23.68;48.28;101194.40;1760408;80;21017;-52
2021/09/13 01:09:21;;;;;;;14.83;10.60;;;;;;;23.65;48.23;101193.30;1772024;80;20967;-49
2021/09/13 01:11:49;;;;;;;12.18;9.95;;;;;;;23.62;48.33;101198.81;1777351;80;21037;-50
2021/09/13 01:14:19;;;;;;;13.65;9.75;;;;;;;23.59;48.31;101197.70;1769628;80;21045;-50
2021/09/13 01:16:47;;;;;;;16.40;10.65;;;;;;;23.57;48.54;101196.96;1777870;80;21017;-48
2021/09/13 01:19:14;;;;;;;13.68;10.23;;;;;;;23.55;48.62;101193.56;1783514;80;21027;-50
2021/09/13 01:21:42;;;;;;;11.53;10.32;;;;;;;23.54;48.82;101197.16;1772572;80;20950;-50
2021/09/13 01:24:09;;;;;;;12.18;10.53;;;;;;;23.50;48.71;101191.69;1759586;80;21013;-48
2021/09/13 01:26:37;;;;;;;11.90;10.50;;;;;;;23.49;48.95;101197.97;1782750;80;20989;-45
2021/09/13 01:29:04;;;;;;;16.67;10.78;;;;;;;23.48;48.72;101196.25;1780146;80;21010;-47
2021/09/13 01:31:32;;;;;;;14.28;10.15;;;;;;;23.45;48.75;101199.95;1778963;80;21054;-50
2021/09/13 01:33:59;;;;;;;16.65;11.63;;;;;;;23.46;48.66;101195.51;1779009;80;21505;-47
2021/09/13 01:36:28;;;;;;;12.50;11.18;;;;;;;23.44;48.64;101197.41;1776366;80;21031;-50
2021/09/13 01:38:55;;;;;;;13.08;10.58;;;;;;;23.43;48.65;101203.70;1776662;80;21024;-47
2021/09/13 01:41:22;;;;;;;13.00;10.48;;;;;;;23.39;48.85;101197.72;1778225;80;21009;-46
2021/09/13 01:43:49;;;;;;;18.05;10.80;;;;;;;23.36;49.03;101203.26;1779622;80;21470;-47
2021/09/13 01:46:15;;;;;;;12.60;10.90;;;;;;;;;;1790327;80;20982;-50
2021/09/13 01:48:48;;;;;;;11.70;10.38;;;;;;;23.34;48.77;101204.31;1711940;83;21049;-50
2021/09/13 01:51:15;;;;;;;16.10;10.32;;;;;;;23.32;48.80;101212.39;1711263;83;21021;-51
2021/09/13 01:53:44;;;;;;;13.48;10.93;;;;;;;23.31;48.98;101223.05;1711211;83;21550;-50
2021/09/13 01:56:11;;;;;;;14.53;11.75;;;;;;;23.30;49.32;101214.73;1712122;83;21089;-48
2021/09/13 01:58:37;;;;;;;13.70;11.10;;;;;;;23.31;49.66;101215.09;1711996;83;21050;-50
2021/09/13 02:01:04;;;;;;;14.87;11.55;;;;;;;23.32;49.56;101214.19;1711419;83;21037;-51
2021/09/13 02:03:33;;;;;;;12.95;10.82;;;;;;;23.30;49.53;101214.27;1711286;83;21037;-50
2021/09/13 02:06:01;;;;;;;11.90;10.78;;;;;;;23.30;49.19;101218.72;1712580;83;21015;-47
2021/09/13 02:08:28;;;;;;;12.35;11.05;;;;;;;23.29;49.31;101220.98;1712712;83;21019;-50
2021/09/13 02:10:57;;;;;;;13.68;11.18;;;;;;;23.26;49.66;101215.42;1708074;83;21094;-53
2021/09/13 02:13:25;;;;;;;14.28;12.23;;;;;;;23.24;49.46;101213.81;1710995;83;21037;-50
2021/09/13 02:15:52;;;;;;;14.25;11.90;;;;;;;23.22;49.59;101214.40;1711515;83;21429;-50
2021/09/13 02:18:20;;;;;;;14.05;11.48;;;;;;;23.23;49.82;101217.41;1713342;83;21522;-51
2021/09/13 02:20:51;;;;;;;14.23;10.90;;;;;;;23.28;49.75;101210.00;1715700;83;21034;-50
2021/09/13 02:23:18;;;;;;;12.37;11.05;;;;;;;23.25;49.67;101211.05;1712170;83;21216;-49
2021/09/13 02:25:45;;;;;;;15.95;11.63;;;;;;;23.24;49.22;101212.48;1710826;83;21081;-52
2021/09/13 02:28:12;;;;;;;14.05;11.20;;;;;;;23.29;48.93;101217.00;1711148;83;21576;-51
2021/09/13 02:30:38;;;;;;;15.30;12.33;;;;;;;23.28;49.19;101215.31;1712923;83;20994;-50
2021/09/13 02:33:07;;;;;;;14.78;11.55;;;;;;;23.22;49.60;101209.09;1711666;83;21030;-50
2021/09/13 02:35:34;;;;;;;15.70;11.63;;;;;;;23.20;49.28;101204.36;1711682;83;21006;-51
2021/09/13 02:38:04;;;;;;;13.00;11.65;;;;;;;23.18;49.37;101201.81;1710940;83;21072;-49
2021/09/13 02:40:30;;;;;;;15.98;11.95;;;;;;;23.16;49.58;101202.86;1711165;83;21045;-48
2021/09/13 02:42:57;;;;;;;13.05;11.68;;;;;;;23.13;49.79;101204.38;1712158;83;21025;-50
2021/09/13 02:45:24;;;;;;;13.83;12.00;;;;;;;23.17;49.65;101207.20;1754755;79;21004;-50
2021/09/13 02:47:51;;;;;;;16.05;11.83;;;;;;;23.17;49.46;101205.88;1784428;80;21029;-50
2021/09/13 02:50:17;;;;;;;12.98;11.60;;;;;;;23.12;49.42;101201.36;1777559;80;21009;-50
2021/09/13 02:52:44;;;;;;;15.55;11.97;;;;;;;23.12;49.73;101200.86;1776406;80;21603;-47
2021/09/13 02:55:13;;;;;;;14.18;12.37;;;;;;;23.09;49.64;101198.90;1777574;79;21049;-47
2021/09/13 02:57:40;;;;;;;16.90;13.00;;;;;;;23.09;49.82;101209.52;1779843;80;20989;-47
2021/09/13 03:00:09;;;;;;;13.48;11.57;;;;;;;23.10;49.88;101203.27;1779956;80;20946;-53
2021/09/13 03:02:39;;;;;;;17.90;12.15;;;;;;;23.07;49.91;101204.78;1781178;80;21020;-50
2021/09/13 03:05:07;;;;;;;16.27;12.30;;;;;;;23.04;50.12;101208.98;1778246;80;21052;-47
2021/09/13 03:07:35;;;;;;;18.12;11.95;;;;;;;23.03;50.26;101212.58;1779281;80;21006;-50
2021/09/13 03:10:04;;;;;;;16.17;12.63;;;;;;;23.06;50.28;101207.09;1787966;80;21364;-51
2021/09/13 03:12:33;;;;;;;16.40;12.33;;;;;;;23.08;50.50;101201.20;1782723;80;20974;-48
2021/09/13 03:15:06;;;;;;;17.27;11.93;;;;;;;23.07;50.56;101214.08;1775263;80;21037;-48
2021/09/13 03:17:33;;;;;;;14.55;12.90;;;;;;;23.08;50.45;101213.14;1776652;80;21481;-49
2021/09/13 03:20:00;;;;;;;13.98;12.33;;;;;;;23.08;50.48;101207.83;1792461;80;21061;-47
2021/09/13 03:22:27;;;;;;;14.75;11.93;;;;;;;23.08;50.45;101201.20;1778452;80;20980;-50
2021/09/13 03:24:54;;;;;;;15.10;12.30;;;;;;;23.07;50.78;101209.63;1772535;80;21109;-51
2021/09/13 03:27:23;;;;;;;18.80;11.80;;;;;;;23.08;51.06;101217.13;1765980;80;20981;-49
2021/09/13 03:29:51;;;;;;;18.20;12.45;;;;;;;23.04;51.19;101212.97;1766017;80;21514;-48
2021/09/13 03:32:18;;;;;;;13.50;11.50;;;;;;;23.05;51.26;101213.33;1774496;80;21021;-51
2021/09/13 03:34:46;;;;;;;15.93;11.55;;;;;;;23.05;51.38;101208.02;1756737;80;21065;-50
2021/09/13 03:37:13;;;;;;;14.93;12.50;;;;;;;23.06;51.27;101223.01;1773036;80;21550;-50
2021/09/13 03:39:40;;;;;;;15.98;12.13;;;;;;;23.04;51.14;101216.95;1766307;80;20985;-47
2021/09/13 03:42:08;;;;;;;14.53;11.55;;;;;;;23.01;51.11;101216.67;1765761;80;21014;-49
2021/09/13 03:44:35;;;;;;;17.32;12.95;;;;;;;22.98;50.79;101218.69;1770449;80;20994;-53
2021/09/13 03:47:04;;;;;;;14.85;13.20;;;;;;;22.95;51.20;101229.48;1771664;80;21029;-49
2021/09/13 03:49:35;;;;;;;15.23;12.88;;;;;;;22.93;51.65;101224.75;1765967;80;21483;-50
2021/09/13 03:52:07;;;;;;;14.55;12.47;;;;;;;22.92;51.64;101221.71;1769259;80;21010;-50
2021/09/13 03:54:31;;;;;;;36.80;14.80;;;;;;;22.91;51.67;101231.50;1764635;80;21487;-47
2021/09/13 03:56:58;;;;;;;15.32;13.00;;;;;;;22.88;51.46;101226.84;1765797;80;21001;-50
2021/09/13 03:59:25;;;;;;;17.52;13.28;;;;;;;22.84;51.09;101222.69;1770332;80;21021;-50
2021/09/13 04:01:52;;;;;;;17.52;12.78;;;;;;;22.82;51.11;101228.57;1766080;80;20958;-48
2021/09/13 04:04:23;;;;;;;14.80;11.78;;;;;;;22.82;51.48;101229.90;1767824;80;21029;-50
2021/09/13 04:06:55;;;;;;;16.15;12.78;;;;;;;22.79;50.91;101235.42;1766213;80;21049;-50
2021/09/13 04:09:59;;;;;;;14.13;11.57;;;;;;;22.78;50.76;101225.74;1699926;84;21022;-49
2021/09/13 04:12:29;;;;;;;14.70;12.53;;;;;;;22.76;51.16;101231.16;1695485;84;21569;-50
2021/09/13 04:15:09;;;;;;;14.40;12.60;;;;;;;22.77;51.42;101229.36;1653141;87;21132;-47
2021/09/13 04:17:48;;;;;;;14.63;12.63;;;;;;;22.77;51.21;101239.97;1653321;87;21548;-49
2021/09/13 04:20:33;;;;;;;14.45;12.03;;;;;;;22.75;51.25;101237.40;1653255;87;21060;-50
2021/09/13 04:23:19;;;;;;;17.35;13.43;;;;;;;22.75;50.71;101241.88;1649995;87;21065;-47
2021/09/13 04:25:48;;;;;;;13.98;12.53;;;;;;;22.74;50.91;101242.81;1660275;86;21093;-50
2021/09/13 04:28:17;;;;;;;13.50;12.13;;;;;;;22.76;50.93;101238.26;1664837;85;21122;-50
2021/09/13 04:30:45;;;;;;;15.03;13.00;;;;;;;22.74;51.06;101242.81;1664837;86;21118;-47
2021/09/13 04:33:26;;;;;;;15.10;13.60;;;;;;;22.72;50.92;101242.06;1613354;89;21591;-47
2021/09/13 04:36:11;;;;;;;14.55;13.00;;;;;;;22.71;51.04;101244.35;1613347;89;21185;-47
2021/09/13 04:38:56;;;;;;;17.95;13.72;;;;;;;22.71;51.26;101249.66;1613272;89;21088;-51
2021/09/13 04:41:40;;;;;;;14.87;13.15;;;;;;;22.69;51.34;101247.08;1610121;89;21119;-47
2021/09/13 04:44:25;;;;;;;17.05;13.15;;;;;;;22.66;51.35;101247.29;1613259;89;21560;-48
2021/09/13 04:47:10;;;;;;;15.13;13.13;;;;;;;22.67;51.03;101249.48;1613240;89;21068;-47
2021/09/13 04:49:42;;;;;;;17.90;12.63;;;;;;;22.68;51.29;101240.55;1588049;90;21108;-47
2021/09/13 04:52:10;;;;;;;17.62;13.03;;;;;;;22.70;51.18;101249.27;1596446;90;21094;-51
2021/09/13 04:54:39;;;;;;;18.82;14.30;;;;;;;22.71;51.21;101249.66;1587333;90;21578;-49
2021/09/13 04:57:06;;;;;;;16.35;14.63;;;;;;;22.73;51.30;101251.73;1569849;91;21050;-47
2021/09/13 04:59:34;;;;;;;17.25;14.07;;;;;;;22.77;51.37;101257.22;1574116;91;21623;-49
2021/09/13 05:02:00;;;;;;;17.42;14.53;;;;;;;22.78;51.40;101258.44;1614210;89;21006;-47
2021/09/13 05:04:27;;;;;;;21.68;15.00;;;;;;;22.82;51.24;101253.78;1614067;89;21101;-47
2021/09/13 05:06:54;;;;;;;15.32;13.58;;;;;;;22.85;51.05;101248.29;1614004;89;21194;-50
2021/09/13 05:09:21;;;;;;;18.23;13.08;;;;;;;22.88;50.78;101257.36;1613795;89;21134;-50
2021/09/13 05:11:49;;;;;;;21.10;13.00;;;;;;;22.88;50.56;101254.70;1584192;90;21151;-50
2021/09/13 05:14:18;;;;;;;19.87;13.90;;;;;;;22.89;50.47;101257.75;1614121;89;21090;-48
2021/09/13 05:16:47;;;;;;;17.42;14.58;;;;;;;22.87;50.12;101259.19;1613842;89;21066;-47
2021/09/13 05:19:14;;;;;;;23.15;16.10;;;;;;;22.81;50.28;101256.93;1592954;89;21062;-50
2021/09/13 05:21:41;;;;;;;22.98;16.00;;;;;;;22.76;50.46;101256.83;1613784;88;21599;-49
2021/09/13 05:24:10;;;;;;;17.15;14.38;;;;;;;22.69;50.34;101258.19;1624107;88;21054;-50
2021/09/13 05:26:39;;;;;;;15.03;13.53;;;;;;;22.63;50.21;101262.92;1589663;90;21586;-46
2021/09/13 05:29:06;;;;;;;19.32;13.38;;;;;;;22.57;50.06;101254.00;1642834;87;21052;-46
2021/09/13 05:31:33;;;;;;;16.35;13.62;;;;;;;22.53;50.21;101260.45;1708149;83;21091;-49
2021/09/13 05:34:00;;;;;;;14.68;13.28;;;;;;;22.51;50.29;101255.71;1698666;83;21022;-47
2021/09/13 05:36:27;;;;;;;26.45;14.28;;;;;;;22.49;50.33;101257.61;1705101;83;21554;-51
2021/09/13 05:38:54;;;;;;;16.10;14.03;;;;;;;22.47;50.24;101255.53;1704885;83;21023;-49
2021/09/13 05:41:31;;;;;;;15.85;13.90;;;;;;;22.46;50.06;101253.81;1647525;87;21066;-48
2021/09/13 05:43:59;;;;;;;17.20;13.70;;;;;;;22.44;50.01;101254.38;1640811;87;21051;-46
2021/09/13 05:46:26;;;;;;;17.77;13.62;;;;;;;22.44;50.11;101258.36;1627800;87;21138;-50
2021/09/13 05:48:53;;;;;;;15.83;13.93;;;;;;;22.44;50.12;101264.98;1648661;86;21025;-49
2021/09/13 05:51:20;;;;;;;16.82;13.55;;;;;;;22.45;49.99;101266.71;1658669;86;21545;-48
2021/09/13 05:53:47;;;;;;;16.85;13.70;;;;;;;22.47;50.06;101267.47;1661192;86;21092;-50
2021/09/13 05:56:13;;;;;;;17.20;13.50;;;;;;;22.50;50.04;101259.30;1657300;86;21002;-49
2021/09/13 05:58:42;;;;;;;17.45;14.10;;;;;;;22.55;50.08;101266.50;1656462;86;21021;-50
2021/09/13 06:01:09;;;;;;;15.85;13.15;;;;;;;22.62;50.00;101263.89;1658364;86;21033;-48
2021/09/13 06:03:36;;;;;;;20.70;13.93;;;;;;;22.68;49.56;101266.61;1657944;86;21085;-50
2021/09/13 06:06:10;;;;;;;16.67;13.18;;;;;;;22.71;49.48;101270.87;1657546;86;21068;-47
2021/09/13 06:08:39;;;;;;;14.75;13.25;;;;;;;22.76;49.47;101274.08;1655939;86;21065;-49
2021/09/13 06:11:05;;;;;;;16.05;14.20;;;;;;;22.80;49.55;101274.25;1657949;86;21040;-47
2021/09/13 06:13:34;;;;;;;19.10;14.18;;;;;;;22.84;49.58;101275.76;1660644;86;21072;-48
2021/09/13 06:16:01;;;;;;;21.90;14.47;;;;;;;22.88;49.37;101278.13;1654839;86;21089;-50
2021/09/13 06:18:28;;;;;;;32.58;14.55;;;;;;;22.91;49.25;101277.08;1711582;82;21139;-48
2021/09/13 06:20:55;;;;;;;15.53;13.60;;;;;;;22.94;49.41;101283.50;1732346;82;20967;-49
2021/09/13 06:23:22;;;;;;;16.35;13.15;;;;;;;22.99;49.45;101285.40;1742416;82;21020;-49
2021/09/13 06:25:49;;;;;;;16.75;13.35;;;;;;;23.06;49.56;101290.70;1752380;80;21548;-51
2021/09/13 06:28:17;;;;;;;16.67;13.65;;;;;;;23.14;49.28;101287.89;1756522;80;20975;-49
2021/09/13 06:30:44;;;;;;;14.53;12.88;;;;;;;23.25;49.04;101296.02;1768763;80;20970;-49
2021/09/13 06:33:11;;;;;;;16.12;14.38;;;;;;;23.37;48.88;101290.39;1768779;80;21574;-46
2021/09/13 06:35:39;;;;;;;16.32;13.72;;;;;;;23.50;48.80;101293.95;1771155;80;21493;-48
2021/09/13 06:38:07;;;;;;;18.87;13.22;;;;;;;23.63;48.49;101286.88;1775686;80;21516;-49
2021/09/13 06:40:35;;;;;;;21.93;13.88;;;;;;;23.73;48.14;101291.94;1772349;80;21044;-50
2021/09/13 06:43:02;;;;;;;16.80;14.00;;;;;;;23.78;47.94;101295.11;1767952;80;20995;-49
2021/09/13 06:45:39;;;;;;;14.65;13.13;;;;;;;23.82;47.76;101299.77;1779000;80;20962;-52
2021/09/13 06:47:57;;;;;;;15.13;13.53;;;;;;;23.83;47.83;101291.68;1771724;80;21494;-48
2021/09/13 06:50:27;;;;;;;20.05;13.20;;;;;;;23.83;47.80;101293.01;1776872;80;20994;-46
2021/09/13 06:52:54;;;;;;;18.27;13.68;;;;;;;23.83;47.59;101291.68;1774954;80;20943;-46
2021/09/13 06:55:23;;;;;;;18.87;13.48;;;;;;;23.83;47.78;101298.32;1772351;80;20923;-49
2021/09/13 06:57:50;;;;;;;17.87;13.13;;;;;;;23.83;47.61;101298.32;1781132;80;21035;-49
2021/09/13 07:00:18;;;;;;;15.95;14.13;;;;;;;23.85;47.71;101299.06;1770261;80;20989;-47
2021/09/13 07:02:45;;;;;;;17.30;13.28;;;;;;;23.89;47.90;101301.89;1770870;80;20974;-49
2021/09/13 07:05:12;;;;;;;17.45;13.62;;;;;;;23.93;47.66;101308.70;1778427;80;20959;-46
2021/09/13 07:07:40;;;;;;;19.23;13.68;;;;;;;23.97;47.80;101310.66;1770895;80;21068;-47
2021/09/13 07:10:09;;;;;;;19.92;13.53;;;;;;;23.99;48.16;101306.95;1775959;80;21029;-49
2021/09/13 07:12:36;;;;;;;20.15;13.58;;;;;;;24.06;47.92;101320.23;1771564;80;21001;-48
2021/09/13 07:15:06;;;;;;;15.72;13.08;;;;;;;24.11;47.60;101315.94;1773362;80;20966;-49
2021/09/13 07:17:33;;;;;;;16.97;14.10;;;;;;;24.18;47.57;101319.86;1776927;80;21001;-50
2021/09/13 07:20:00;;;;;;;18.40;13.43;;;;;;;24.23;47.74;101321.23;1775903;80;21033;-47
2021/09/13 07:22:28;;;;;;;18.98;14.47;;;;;;;24.30;47.67;101324.32;1773679;80;21034;-49
2021/09/13 07:24:55;;;;;;;16.60;14.03;;;;;;;24.37;47.51;101330.06;1779074;80;21478;-49
2021/09/13 07:27:22;;;;;;;14.58;13.03;;;;;;;24.42;47.57;101327.95;1776350;80;20990;-51
2021/09/13 07:29:49;;;;;;;16.82;13.85;;;;;;;24.46;47.62;101324.12;1773651;80;21462;-46
2021/09/13 07:32:16;;;;;;;19.67;14.55;;;;;;;24.51;47.61;101322.82;1775711;80;21025;-45
2021/09/13 07:34:43;;;;;;;16.48;13.65;;;;;;;24.58;47.80;101328.56;1776551;80;21002;-49
2021/09/13 07:37:09;;;;;;;21.55;14.47;;;;;;;24.65;47.56;101328.48;1767019;80;20982;-46
2021/09/13 07:39:37;;;;;;;19.73;15.30;;;;;;;24.71;47.62;101325.42;1768937;80;21053;-47
2021/09/13 07:42:04;;;;;;;15.75;14.20;;;;;;;24.77;47.90;101330.33;1769250;80;21530;-48
2021/09/13 07:44:32;;;;;;;16.80;14.65;;;;;;;24.82;47.96;101326.84;1766621;80;21698;-48
2021/09/13 07:46:59;;;;;;;17.32;14.10;;;;;;;24.88;47.99;101333.05;1781705;80;21032;-50
2021/09/13 07:49:26;;;;;;;28.47;15.38;;;;;;;24.91;48.19;101335.52;1764719;80;20955;-50
2021/09/13 07:51:53;;;;;;;17.52;15.20;;;;;;;24.96;48.20;101338.67;1776055;80;21515;-48
2021/09/13 07:54:20;;;;;;;17.35;13.93;;;;;;;25.00;48.21;101330.83;1765935;80;21382;-50
2021/09/13 07:56:47;;;;;;;20.50;15.00;;;;;;;25.04;48.10;101332.31;1769062;80;21110;-48
2021/09/13 07:59:14;;;;;;;22.42;15.15;;;;;;;25.10;48.05;101333.70;1768326;80;20979;-48
2021/09/13 08:01:40;;;;;;;15.72;14.07;;;;;;;25.14;48.18;101325.37;1766951;80;21545;-48
2021/09/13 08:04:09;;;;;;;16.77;14.87;;;;;;;25.21;48.11;101325.28;1773746;80;20982;-50
2021/09/13 08:06:36;;;;;;;21.60;15.38;;;;;;;25.25;48.24;101330.75;1769372;80;21040;-48
2021/09/13 08:09:07;;;;;;;18.70;15.53;;;;;;;25.33;48.22;101329.70;1769145;80;21022;-46
2021/09/13 08:11:32;;;;;;;23.18;15.93;;;;;;;25.33;48.22;101329.70;1768925;80;21552;-49
2021/09/13 08:13:59;;;;;;;16.90;14.98;;;;;;;25.36;48.16;101330.82;1766177;80;21100;-48
2021/09/13 08:16:28;;;;;;;20.70;15.18;;;;;;;25.43;48.14;101334.74;1769998;80;21000;-52
2021/09/13 08:18:57;;;;;;;19.02;14.25;;;;;;;25.47;48.02;101334.87;1776988;80;21014;-48
2021/09/13 08:21:27;;;;;;;25.75;15.50;;;;;;;25.53;47.13;101340.26;1773317;80;21011;-49
2021/09/13 08:23:56;;;;;;;23.20;14.87;;;;;;;25.56;46.82;101340.88;1778786;80;20986;-50
2021/09/13 08:26:23;;;;;;;21.15;14.83;;;;;;;25.61;46.57;101341.39;1774413;80;21026;-47
2021/09/13 08:28:50;;;;;;;28.90;15.08;;;;;;;25.66;46.32;101338.35;1784956;80;21077;-49
2021/09/13 08:31:17;;;;;;;18.85;14.58;;;;;;;25.70;46.26;101337.16;1773406;80;21427;-49
2021/09/13 08:33:45;;;;;;;18.60;14.63;;;;;;;25.79;46.05;101337.33;1772917;80;21451;-50
2021/09/13 08:36:12;;;;;;;16.70;14.73;;;;;;;25.79;46.05;101337.33;1772004;80;21041;-47
2021/09/13 08:38:38;;;;;;;18.17;13.98;;;;;;;25.86;45.77;101333.72;1776794;80;21000;-49
2021/09/13 08:41:06;;;;;;;19.52;14.38;;;;;;;25.91;45.67;101333.34;1771593;80;21033;-49
2021/09/13 08:43:32;;;;;;;16.40;14.15;;;;;;;25.94;45.23;101329.13;1785400;80;21033;-50
2021/09/13 08:46:15;;;;;;;17.15;14.40;;;;;;;26.04;45.11;101332.78;1781553;80;21096;-51
2021/09/13 08:48:43;;;;;;;19.85;14.43;;;;;;;26.10;45.42;101333.67;1778447;80;20974;-48
2021/09/13 08:53:53;;;;;;;20.10;15.28;;;;;;;26.15;44.81;101334.19;1779057;80;21506;-50
2021/09/13 08:56:23;;;;;;;19.37;13.90;;;;;;;26.22;44.16;101341.58;1779978;80;21502;-47
2021/09/13 08:58:47;;;;;;;22.20;14.63;;;;;;;26.27;44.53;101338.56;1775533;80;20973;-49
2021/09/13 09:01:14;;;;;;;18.60;14.87;;;;;;;26.33;44.71;101340.75;1771001;80;20998;-46
2021/09/13 09:03:43;;;;;;;15.00;13.40;;;;;;;26.33;44.71;101340.75;1774002;80;21493;-49
2021/09/13 09:06:35;;;;;;;17.73;14.10;;;;;;;26.38;44.75;101334.55;1782703;80;21589;-51
2021/09/13 09:09:06;;;;;;;21.70;14.68;;;;;;;26.43;44.66;101332.38;1771346;80;21525;-47
2021/09/13 09:12:00;;;;;;;18.07;15.20;;;;;;;26.48;44.98;101338.23;1778484;80;21021;-47
2021/09/13 09:14:40;;;;;;;17.10;14.78;;;;;;;26.50;45.20;101337.11;1780545;80;21429;-49
2021/09/13 09:17:25;;;;;;;20.30;15.28;;;;;;;26.54;45.46;101334.56;1775917;80;20965;-48
2021/09/13 09:20:10;;;;;;;17.98;15.83;;;;;;;26.60;45.42;101342.08;1773857;80;20986;-45
2021/09/13 09:22:41;;;;;;;18.52;15.23;;;;;;;26.62;45.56;101327.30;1783471;80;20990;-49
2021/09/13 09:25:10;;;;;;;19.92;15.58;;;;;;;26.65;45.59;101323.03;1783162;80;20954;-49
2021/09/13 09:28:00;;;;;;;19.45;15.55;;;;;;;26.72;46.04;101330.97;1774571;79;21002;-46
2021/09/13 09:30:45;;;;;;;19.35;16.75;;;;;;;26.72;46.04;101330.97;1777582;80;20981;-47
2021/09/13 09:33:14;;;;;;;17.80;15.90;;;;;;;26.78;45.92;101333.14;1777581;80;21029;-49
2021/09/13 09:35:44;;;;;;;15.88;14.07;;;;;;;26.83;46.13;101337.61;1768611;80;20935;-52
2021/09/13 09:38:39;;;;;;;18.17;15.85;;;;;;;26.86;46.19;101336.05;1773260;80;20985;-51
2021/09/13 09:41:15;;;;;;;19.50;15.23;;;;;;;26.91;46.39;101336.53;1706168;83;21093;-47
2021/09/13 09:44:01;;;;;;;15.98;14.03;;;;;;;26.93;46.78;101333.25;1711706;83;21020;-52
2021/09/13 09:46:40;;;;;;;21.45;14.98;;;;;;;26.97;46.94;101338.71;1710179;83;21022;-49
2021/09/13 09:49:14;;;;;;;23.10;14.73;;;;;;;27.03;47.05;101337.36;1631676;87;21163;-48
2021/09/13 09:51:45;;;;;;;17.07;14.87;;;;;;;27.07;47.09;101335.66;1633837;87;21058;-52
2021/09/13 09:54:20;;;;;;;20.92;15.32;;;;;;;27.11;47.26;101330.42;1542034;91;21083;-49
2021/09/13 09:56:59;;;;;;;20.72;15.43;;;;;;;27.16;47.25;101333.55;1535192;91;21043;-49
2021/09/13 09:59:38;;;;;;;17.17;14.65;;;;;;;27.19;47.38;101333.31;1533934;92;21111;-49
2021/09/13 10:02:14;;;;;;;18.27;14.10;;;;;;;27.21;47.66;101332.70;1473520;96;21215;-50
2021/09/13 10:04:42;;;;;;;18.62;14.60;;;;;;;27.24;47.86;101331.09;1470354;96;21099;-48
2021/09/13 10:07:13;;;;;;;15.25;13.68;;;;;;;27.24;48.47;101337.77;1469038;96;21138;-49
2021/09/13 10:09:41;;;;;;;17.32;13.65;;;;;;;27.25;48.92;101334.14;1476476;95;21057;-50
2021/09/13 10:12:08;;;;;;;15.90;14.05;;;;;;;27.27;48.98;101336.68;1468188;96;21118;-51
2021/09/13 10:14:35;;;;;;;17.32;14.35;;;;;;;27.30;49.10;101335.11;1475054;97;21061;-49
2021/09/13 10:17:05;;;;;;;18.92;15.48;;;;;;;27.33;49.32;101338.37;1476164;96;21619;-48
2021/09/13 10:19:32;;;;;;;17.60;15.50;;;;;;;27.37;49.53;101339.84;1498952;94;21101;-47
2021/09/13 10:22:01;;;;;;;17.05;15.35;;;;;;;27.41;49.57;101335.09;1496137;94;21102;-47
2021/09/13 10:24:31;;;;;;;23.07;17.45;;;;;;;27.43;49.67;101333.64;1499924;93;21156;-47
2021/09/13 10:27:08;;;;;;;20.43;18.25;;;;;;;27.46;49.84;101336.91;1496993;93;21671;-47
2021/09/13 10:29:36;;;;;;;23.47;17.73;;;;;;;27.48;49.86;101337.63;1494816;95;21096;-47
2021/09/13 10:32:09;;;;;;;23.52;16.90;;;;;;;27.50;50.06;101332.14;1488955;95;21632;-50
2021/09/13 10:34:44;;;;;;;18.62;16.42;;;;;;;27.53;50.28;101330.56;1487175;95;21113;-52
2021/09/13 10:37:14;;;;;;;19.60;17.60;;;;;;;27.55;50.33;101332.63;1484358;95;21062;-49
2021/09/13 10:40:08;;;;;;;18.45;16.50;;;;;;;27.60;50.41;101333.06;1487640;95;21111;-49
2021/09/13 10:42:49;;;;;;;16.10;14.40;;;;;;;27.61;50.51;101333.45;1486537;95;21666;-47
2021/09/13 10:45:41;;;;;;;16.97;13.15;;;;;;;27.64;50.69;101334.02;1522897;90;21021;-46
2021/09/13 10:48:14;;;;;;;17.15;13.08;;;;;;;27.68;50.83;101331.94;1562314;90;21038;-49
2021/09/13 10:50:47;;;;;;;17.02;12.33;;;;;;;27.71;50.98;101326.34;1586972;88;21534;-47
2021/09/13 10:53:22;;;;;;;13.98;12.00;;;;;;;27.74;51.10;101326.09;1723230;82;21023;-49
2021/09/13 10:55:55;;;;;;;18.82;13.50;;;;;;;27.77;51.14;101320.48;1723111;82;21510;-51
2021/09/13 10:58:44;;;;;;;13.72;12.03;;;;;;;27.82;51.35;101326.30;1705599;82;21018;-49
2021/09/13 11:01:29;;;;;;;14.25;12.05;;;;;;;27.88;51.21;101328.45;1699994;83;21034;-48
2021/09/13 11:04:06;;;;;;;16.87;12.20;;;;;;;27.93;51.17;101327.55;1698531;82;21054;-48
2021/09/13 11:06:41;;;;;;;17.17;11.90;;;;;;;27.99;51.13;101328.40;1706573;82;21023;-50
2021/09/13 11:09:14;;;;;;;16.60;11.33;;;;;;;28.04;51.04;101324.85;1656716;85;21058;-48
2021/09/13 11:11:46;;;;;;;14.28;12.25;;;;;;;28.08;50.91;101319.59;1671288;85;21065;-49
2021/09/13 11:14:16;;;;;;;16.50;11.33;;;;;;;28.08;51.10;101322.27;1649809;85;21054;-49
2021/09/13 11:16:50;;;;;;;16.23;11.28;;;;;;;28.13;51.04;101322.74;1663454;85;21024;-48
2021/09/13 11:19:18;;;;;;;14.70;11.90;;;;;;;28.21;51.02;101320.25;1635829;86;21046;-48
2021/09/13 11:21:54;;;;;;;17.02;11.35;;;;;;;28.27;51.03;101321.05;1650308;85;21082;-50
2021/09/13 11:24:29;;;;;;;11.70;10.43;;;;;;;28.29;51.01;101321.77;1661826;85;21026;-52